Pucha Pucha, Argentina
Current Conditions -  °F | °C
As of 4:08 AM on Thursday 23 Oct 2014 (Local Time) from SCAT Reporting Station
NA  
Wind Chill: 14°   Ceiling: NA
Heat Index: 14°   Visibility: 6mi
Dew Point: 11°   Wind: 3mph
Humidity: 82%   Direction: 280°W
Pressure: 30"   Gusts: NA
Location:  28.34°S, 69.22°W
Report Text: SCAT 230708Z AUTO 28003KT 220V350 9999 // ///009 14/11 Q1016
Loading
Personal Weather Stations






























Interactive Weather Map
Tropical Storm Tracking
New forecast layout! Learn more

10-Day Weather Forecast

Advertisements
Track Severe Weather on mobile